createdAt,value
2022-12-18T00:01:34.346Z,39.75
2022-12-18T00:04:06.715Z,32.97
2022-12-18T00:06:35.778Z,31.73
2022-12-18T00:09:04.221Z,31.65
2022-12-18T00:11:32.644Z,31.65
2022-12-18T00:14:01.030Z,30.85
2022-12-18T00:16:29.835Z,33.33
2022-12-18T00:19:01.407Z,32.60
2022-12-18T00:21:30.879Z,31.70
2022-12-18T00:23:59.673Z,32.58
2022-12-18T00:26:33.663Z,32.67
2022-12-18T00:29:05.860Z,28.88
2022-12-18T00:31:34.015Z,28.35
2022-12-18T00:34:02.600Z,28.35
2022-12-18T00:36:32.959Z,26.60
2022-12-18T00:39:01.787Z,29.92
2022-12-18T00:41:48.447Z,28.70
2022-12-18T00:44:27.648Z,28.60
2022-12-18T00:46:56.971Z,26.92
2022-12-18T00:49:24.391Z,28.33
2022-12-18T00:51:52.181Z,28.92
2022-12-18T00:54:22.269Z,28.75
2022-12-18T00:56:51.053Z,27.73
2022-12-18T00:59:19.446Z,29.77
2022-12-18T01:01:47.998Z,27.05
2022-12-18T01:04:16.363Z,28.27
2022-12-18T01:06:46.521Z,27.35
2022-12-18T01:09:14.210Z,29.85
2022-12-18T01:11:41.730Z,27.52
2022-12-18T01:14:09.042Z,30.10
2022-12-18T01:16:38.768Z,29.50
2022-12-18T01:19:06.069Z,28.05
2022-12-18T01:21:34.460Z,29.73
2022-12-18T01:24:05.622Z,29.63
2022-12-18T01:26:33.214Z,28.10
2022-12-18T01:29:00.506Z,26.50
2022-12-18T01:31:30.750Z,28.00
2022-12-18T01:34:01.269Z,27.30
2022-12-18T01:36:31.337Z,27.13
2022-12-18T01:39:03.282Z,26.70
2022-12-18T01:41:52.424Z,26.60
2022-12-18T01:44:59.158Z,26.75
2022-12-18T01:47:53.537Z,29.00
2022-12-18T01:50:32.306Z,25.75
2022-12-18T01:53:06.646Z,26.42
2022-12-18T01:55:40.008Z,25.63
2022-12-18T01:58:07.697Z,26.00
2022-12-18T02:00:35.201Z,25.05
2022-12-18T02:03:03.020Z,26.63
2022-12-18T02:05:33.301Z,27.40
2022-12-18T02:08:19.658Z,26.17
2022-12-18T02:11:06.314Z,26.05
2022-12-18T02:13:53.169Z,26.98
2022-12-18T02:16:30.941Z,23.85
2022-12-18T02:19:04.388Z,26.13
2022-12-18T02:21:48.157Z,26.52
2022-12-18T02:24:30.708Z,26.88
2022-12-18T02:27:02.005Z,28.65
2022-12-18T02:29:57.862Z,29.00
2022-12-18T02:32:30.855Z,28.42
2022-12-18T02:34:59.590Z,29.40
2022-12-18T02:37:31.633Z,26.52
2022-12-18T02:40:07.080Z,26.27
2022-12-18T02:42:36.961Z,28.45
2022-12-18T02:45:07.912Z,29.63
2022-12-18T02:47:40.467Z,30.92
2022-12-18T02:50:12.091Z,29.40
2022-12-18T02:53:04.163Z,27.30
2022-12-18T02:56:18.000Z,27.48
2022-12-18T02:59:14.467Z,27.33
2022-12-18T03:01:56.765Z,28.13
2022-12-18T03:04:40.252Z,29.38
2022-12-18T03:07:17.272Z,29.65
2022-12-18T03:09:49.648Z,27.88
2022-12-18T03:12:31.878Z,28.98
2022-12-18T03:15:22.079Z,28.27
2022-12-18T03:18:06.596Z,27.20
2022-12-18T03:20:36.694Z,28.58
2022-12-18T03:23:10.670Z,27.08
2022-12-18T03:25:43.787Z,26.48
2022-12-18T03:28:15.580Z,26.55
2022-12-18T03:30:46.415Z,28.15
2022-12-18T03:33:41.669Z,26.08
2022-12-18T03:36:09.537Z,27.70
2022-12-18T03:38:37.185Z,27.38
2022-12-18T03:41:24.370Z,28.35
2022-12-18T03:44:14.920Z,27.83
2022-12-18T03:46:50.349Z,27.80
2022-12-18T03:49:46.439Z,26.92
2022-12-18T03:52:36.240Z,26.38
2022-12-18T03:55:06.634Z,26.45
2022-12-18T03:57:35.088Z,25.60
2022-12-18T04:00:11.843Z,25.70
2022-12-18T04:02:53.193Z,26.83
2022-12-18T04:05:28.274Z,25.70
2022-12-18T04:07:57.031Z,26.92
2022-12-18T04:10:24.564Z,26.60
2022-12-18T04:12:57.136Z,27.98
2022-12-18T04:15:26.892Z,25.98
2022-12-18T04:17:54.180Z,26.73
2022-12-18T04:20:24.896Z,25.63
2022-12-18T04:23:11.074Z,26.35
2022-12-18T04:25:39.638Z,26.13
2022-12-18T04:28:11.199Z,25.60
2022-12-18T04:30:39.963Z,26.08
2022-12-18T04:33:17.282Z,25.45
2022-12-18T04:35:46.217Z,26.52
2022-12-18T04:38:14.508Z,25.45
2022-12-18T04:40:42.610Z,26.13
2022-12-18T04:43:20.868Z,29.10
2022-12-18T04:45:48.489Z,26.70
2022-12-18T04:48:15.739Z,26.05
2022-12-18T04:50:43.212Z,26.27
2022-12-18T04:53:10.438Z,24.98
2022-12-18T04:55:37.925Z,25.00
2022-12-18T04:58:05.892Z,27.73
2022-12-18T05:00:33.665Z,27.33
2022-12-18T05:03:03.016Z,25.60
2022-12-18T05:05:30.882Z,27.98
2022-12-18T05:07:58.111Z,27.85
2022-12-18T05:10:25.567Z,25.98
2022-12-18T05:13:02.264Z,26.77
2022-12-18T05:15:33.823Z,26.13
2022-12-18T05:18:01.933Z,27.02
2022-12-18T05:20:29.935Z,28.90
2022-12-18T05:22:57.325Z,28.00
2022-12-18T05:25:25.177Z,29.58
2022-12-18T05:27:52.361Z,28.38
2022-12-18T05:30:19.972Z,27.27
2022-12-18T05:32:47.247Z,28.33
2022-12-18T05:35:14.749Z,26.40
2022-12-18T05:37:43.425Z,27.00
2022-12-18T05:40:12.142Z,25.77
2022-12-18T05:42:39.705Z,26.40
2022-12-18T05:45:07.687Z,31.27
2022-12-18T05:47:35.243Z,26.55
2022-12-18T05:50:02.962Z,25.48
2022-12-18T05:52:31.401Z,28.55
2022-12-18T05:55:00.032Z,26.35
2022-12-18T05:57:27.276Z,27.08
2022-12-18T05:59:54.830Z,28.15
2022-12-18T06:02:22.287Z,28.77
2022-12-18T06:04:52.127Z,25.75
2022-12-18T06:07:19.366Z,30.48
2022-12-18T06:09:46.811Z,30.60
2022-12-18T06:12:13.999Z,29.30
2022-12-18T06:14:41.496Z,30.27
2022-12-18T06:17:08.683Z,30.85
2022-12-18T06:19:36.263Z,29.52
2022-12-18T06:22:03.591Z,29.58
2022-12-18T06:24:31.446Z,30.92
2022-12-18T06:26:58.657Z,28.90
2022-12-18T06:29:26.112Z,28.95
2022-12-18T06:31:53.306Z,27.60
2022-12-18T06:34:20.791Z,29.00
2022-12-18T06:36:48.082Z,28.58
2022-12-18T06:39:15.521Z,29.23
2022-12-18T06:41:42.710Z,28.77
2022-12-18T06:44:10.459Z,29.73
2022-12-18T06:46:39.056Z,29.20
2022-12-18T06:49:06.585Z,29.75
2022-12-18T06:51:33.709Z,28.77
2022-12-18T06:54:01.204Z,32.50
2022-12-18T06:56:29.065Z,30.77
2022-12-18T06:58:56.645Z,33.00
2022-12-18T07:01:24.065Z,30.58
2022-12-18T07:03:58.095Z,33.22
2022-12-18T07:06:27.140Z,32.83
2022-12-18T07:08:55.212Z,32.75
2022-12-18T07:11:22.664Z,33.38
2022-12-18T07:13:50.189Z,32.42
2022-12-18T07:16:24.653Z,31.30
2022-12-18T07:18:55.266Z,31.73
2022-12-18T07:21:23.914Z,32.72
2022-12-18T07:23:52.057Z,28.90
2022-12-18T07:26:21.114Z,32.42
2022-12-18T07:28:49.407Z,32.42
2022-12-18T07:31:21.548Z,32.40
2022-12-18T07:33:50.241Z,34.45
2022-12-18T07:36:18.109Z,34.38
2022-12-18T07:38:48.202Z,32.22
2022-12-18T07:41:16.202Z,37.17
2022-12-18T07:43:44.539Z,36.47
2022-12-18T07:46:14.868Z,33.92
2022-12-18T07:48:44.229Z,34.55
2022-12-18T07:51:13.655Z,37.70
2022-12-18T07:53:42.561Z,37.22
2022-12-18T07:56:27.159Z,36.67
2022-12-18T07:58:56.130Z,37.75
2022-12-18T08:01:23.673Z,40.17
2022-12-18T08:04:10.420Z,40.50
2022-12-18T08:06:37.644Z,44.85
2022-12-18T08:09:05.201Z,36.03
2022-12-18T08:11:32.596Z,37.45
2022-12-18T08:14:00.090Z,53.20
2022-12-18T08:16:27.430Z,53.97
2022-12-18T08:18:55.518Z,58.75
2022-12-18T08:21:26.292Z,42.65
2022-12-18T08:24:00.049Z,37.03
2022-12-18T08:26:29.579Z,33.53
2022-12-18T08:28:58.509Z,44.28
2022-12-18T08:31:27.677Z,36.60
2022-12-18T08:33:55.840Z,40.42
2022-12-18T08:36:25.045Z,77.50
2022-12-18T08:38:53.905Z,101.75
2022-12-18T08:41:22.219Z,50.53
2022-12-18T08:44:08.879Z,55.97
2022-12-18T08:46:39.486Z,67.95
2022-12-18T08:49:09.044Z,59.47
2022-12-18T08:51:37.094Z,53.05
2022-12-18T08:54:06.347Z,41.35
2022-12-18T08:56:35.212Z,39.25
2022-12-18T08:59:03.306Z,47.47
2022-12-18T09:01:30.591Z,60.97
2022-12-18T09:03:59.179Z,48.20
2022-12-18T09:06:27.662Z,46.08
2022-12-18T09:08:55.243Z,62.00
2022-12-18T09:11:25.761Z,58.10
2022-12-18T09:13:55.019Z,42.03
2022-12-18T09:16:28.676Z,42.13
2022-12-18T09:19:00.960Z,41.35
2022-12-18T09:21:31.617Z,38.80
2022-12-18T09:24:01.079Z,38.38
2022-12-18T09:26:28.390Z,34.95
2022-12-18T09:28:56.945Z,34.22
2022-12-18T09:31:25.783Z,34.15
2022-12-18T09:33:53.396Z,39.05
2022-12-18T09:36:23.059Z,34.25
2022-12-18T09:38:50.584Z,35.33
2022-12-18T09:41:55.998Z,34.10
2022-12-18T09:44:28.633Z,34.05
2022-12-18T09:47:14.924Z,32.80
2022-12-18T09:49:46.765Z,38.83
2022-12-18T09:52:38.680Z,33.40
2022-12-18T09:55:32.167Z,34.83
2022-12-18T09:58:22.048Z,32.75
2022-12-18T10:00:52.427Z,32.10
2022-12-18T10:03:20.067Z,35.90
2022-12-18T10:06:08.922Z,35.75
2022-12-18T10:09:11.639Z,33.85
2022-12-18T10:11:49.525Z,46.00
2022-12-18T10:14:23.350Z,39.30
2022-12-18T10:16:53.684Z,37.38
2022-12-18T10:19:50.459Z,36.70
2022-12-18T10:22:30.182Z,35.38
2022-12-18T10:25:22.148Z,36.75
2022-12-18T10:27:58.816Z,34.22
2022-12-18T10:30:27.393Z,33.60
2022-12-18T10:32:57.160Z,35.08
2022-12-18T10:35:27.938Z,33.65
2022-12-18T10:38:13.294Z,36.22
2022-12-18T10:40:49.710Z,36.83
2022-12-18T10:43:22.466Z,35.60
2022-12-18T10:46:07.020Z,36.20
2022-12-18T10:51:12.991Z,34.88
2022-12-18T10:53:43.948Z,36.08
2022-12-18T10:56:12.053Z,38.03
2022-12-18T10:58:40.876Z,34.58
2022-12-18T11:01:18.845Z,35.50
2022-12-18T11:03:56.398Z,36.50
2022-12-18T11:06:26.843Z,38.03
2022-12-18T11:09:13.197Z,38.92
2022-12-18T11:11:40.668Z,37.97
2022-12-18T11:14:20.246Z,37.97
2022-12-18T11:17:23.884Z,35.75
2022-12-18T11:19:39.070Z,36.60
2022-12-18T11:22:28.911Z,36.90
2022-12-18T11:25:35.339Z,37.22
2022-12-18T11:28:24.942Z,37.22
2022-12-18T11:31:13.657Z,42.25
2022-12-18T11:34:04.763Z,38.88
2022-12-18T11:36:39.386Z,45.05
2022-12-18T11:39:17.776Z,40.05
2022-12-18T11:42:12.923Z,49.97
2022-12-18T11:44:52.115Z,44.85
2022-12-18T11:47:41.460Z,45.67
2022-12-18T11:50:16.242Z,45.50
2022-12-18T11:52:44.113Z,45.53
2022-12-18T11:55:52.651Z,41.97
2022-12-18T11:58:43.801Z,41.97
2022-12-18T12:01:45.085Z,49.95
2022-12-18T12:04:47.079Z,38.22
2022-12-18T12:07:22.038Z,40.83
2022-12-18T12:09:49.574Z,47.20
2022-12-18T12:12:28.779Z,45.08
2022-12-18T12:15:23.007Z,44.25
2022-12-18T12:18:11.277Z,42.33
2022-12-18T12:21:20.613Z,40.05
2022-12-18T12:24:09.791Z,42.92
2022-12-18T12:26:58.579Z,43.00
2022-12-18T12:29:52.241Z,43.67
2022-12-18T12:32:46.952Z,46.30
2022-12-18T12:35:45.383Z,45.00
2022-12-18T12:38:26.426Z,48.08
2022-12-18T12:41:03.056Z,45.17
2022-12-18T12:43:50.686Z,44.15
2022-12-18T12:46:22.869Z,44.22
2022-12-18T12:48:56.374Z,48.30
2022-12-18T12:51:36.303Z,47.25
2022-12-18T12:54:07.610Z,44.60
2022-12-18T12:57:04.479Z,49.50
2022-12-18T13:00:09.611Z,40.30
2022-12-18T13:02:45.068Z,46.35
2022-12-18T13:05:16.347Z,47.03
2022-12-18T13:07:52.604Z,39.63
2022-12-18T13:10:20.936Z,35.85
2022-12-18T13:12:57.040Z,38.78
2022-12-18T13:15:42.016Z,40.17
2022-12-18T13:18:09.547Z,40.42
2022-12-18T13:20:39.717Z,63.85
2022-12-18T13:23:25.473Z,57.15
2022-12-18T13:26:11.442Z,42.10
2022-12-18T13:28:58.701Z,38.17
2022-12-18T13:31:41.846Z,47.30
2022-12-18T13:34:29.359Z,41.30
2022-12-18T13:37:32.938Z,41.22
2022-12-18T13:40:00.229Z,39.85
2022-12-18T13:42:50.428Z,46.63
2022-12-18T13:45:40.264Z,43.03
2022-12-18T13:48:23.747Z,39.63
2022-12-18T13:51:14.416Z,41.42
2022-12-18T13:53:51.852Z,37.55
2022-12-18T13:56:29.458Z,38.80
2022-12-18T13:59:20.424Z,42.40
2022-12-18T14:01:58.561Z,71.13
2022-12-18T14:04:29.312Z,46.47
2022-12-18T14:07:05.547Z,43.15
2022-12-18T14:09:39.036Z,42.45
2022-12-18T14:12:33.974Z,43.40
2022-12-18T14:15:01.831Z,47.22
2022-12-18T14:17:29.324Z,47.00
2022-12-18T14:19:58.473Z,44.60
2022-12-18T14:22:36.443Z,47.65
2022-12-18T14:25:31.106Z,48.78
2022-12-18T14:28:15.517Z,45.35
2022-12-18T14:30:45.083Z,48.97
2022-12-18T14:33:21.233Z,48.63
2022-12-18T14:36:03.423Z,39.70
2022-12-18T14:38:41.075Z,39.40
2022-12-18T14:41:12.755Z,45.50
2022-12-18T14:43:42.928Z,46.70
2022-12-18T14:46:36.864Z,49.30
2022-12-18T14:49:19.325Z,45.42
2022-12-18T14:51:53.223Z,45.90
2022-12-18T14:54:23.024Z,45.78
2022-12-18T14:56:57.623Z,49.17
2022-12-18T14:59:27.090Z,50.90
2022-12-18T15:01:55.189Z,57.28
2022-12-18T15:04:27.663Z,58.53
2022-12-18T15:07:11.983Z,57.33
2022-12-18T15:09:41.181Z,58.83
2022-12-18T15:12:33.177Z,60.03
2022-12-18T15:15:00.564Z,49.67
2022-12-18T15:17:28.460Z,47.50
2022-12-18T15:20:03.108Z,48.10
2022-12-18T15:22:37.384Z,50.28
2022-12-18T15:25:28.146Z,52.17
2022-12-18T15:27:55.810Z,51.65
2022-12-18T15:30:25.495Z,53.33
2022-12-18T15:33:13.852Z,50.70
2022-12-18T15:35:46.626Z,47.58
2022-12-18T15:38:14.583Z,48.65
2022-12-18T15:40:42.265Z,56.35
2022-12-18T15:43:29.604Z,65.13
2022-12-18T15:45:57.318Z,55.95
2022-12-18T15:48:24.940Z,57.55
2022-12-18T15:50:54.868Z,56.53
2022-12-18T15:53:22.494Z,54.45
2022-12-18T15:56:08.166Z,55.30
2022-12-18T15:58:36.047Z,52.30
2022-12-18T16:01:03.837Z,51.97
2022-12-18T16:03:33.016Z,51.00
2022-12-18T16:06:04.523Z,53.25
2022-12-18T16:08:34.523Z,57.15
2022-12-18T16:11:02.643Z,68.55
2022-12-18T16:13:31.194Z,59.83
2022-12-18T16:15:58.870Z,57.08
2022-12-18T16:18:26.407Z,55.15
2022-12-18T16:20:53.959Z,65.38
2022-12-18T16:23:23.907Z,69.40
2022-12-18T16:25:51.595Z,64.88
2022-12-18T16:28:19.041Z,55.15
2022-12-18T16:30:46.259Z,56.47
2022-12-18T16:33:13.799Z,54.70
2022-12-18T16:35:41.144Z,47.22
2022-12-18T16:38:08.618Z,48.97
2022-12-18T16:40:55.956Z,54.40
2022-12-18T16:43:23.636Z,57.05
2022-12-18T16:45:50.851Z,62.70
2022-12-18T16:48:19.414Z,53.85
2022-12-18T16:50:46.531Z,60.47
2022-12-18T16:53:13.969Z,60.25
2022-12-18T16:55:41.268Z,53.53
2022-12-18T16:58:08.819Z,57.00
2022-12-18T17:00:41.360Z,58.33
2022-12-18T17:05:37.914Z,55.78
2022-12-18T17:08:06.644Z,57.28
2022-12-18T17:10:36.220Z,53.72
2022-12-18T17:13:03.866Z,65.82
2022-12-18T17:15:31.094Z,89.07
2022-12-18T17:18:00.193Z,83.88
2022-12-18T17:20:27.544Z,77.63
2022-12-18T17:22:55.218Z,63.08
2022-12-18T17:25:26.643Z,73.53
2022-12-18T17:27:54.449Z,65.65
2022-12-18T17:30:21.638Z,57.10
2022-12-18T17:32:49.131Z,54.05
2022-12-18T17:35:17.167Z,59.70
2022-12-18T17:37:44.774Z,58.97
2022-12-18T17:40:12.343Z,59.22
2022-12-18T17:42:40.187Z,55.50
2022-12-18T17:45:07.958Z,56.33
2022-12-18T17:47:36.303Z,62.70
2022-12-18T17:50:03.570Z,59.90
2022-12-18T17:52:33.863Z,59.97
2022-12-18T17:55:02.592Z,62.15
2022-12-18T17:57:30.384Z,65.35
2022-12-18T17:59:57.569Z,75.20
2022-12-18T18:02:25.239Z,67.57
2022-12-18T18:04:54.863Z,61.20
2022-12-18T18:07:22.735Z,60.95
2022-12-18T18:09:49.995Z,61.78
2022-12-18T18:12:36.015Z,56.33
2022-12-18T18:15:03.404Z,57.05
2022-12-18T18:17:31.148Z,58.47
2022-12-18T18:20:00.130Z,67.53
2022-12-18T18:22:29.177Z,72.32
2022-12-18T18:24:56.579Z,59.78
2022-12-18T18:27:24.052Z,60.28
2022-12-18T18:29:51.524Z,102.40
2022-12-18T18:32:19.061Z,80.53
2022-12-18T18:34:46.530Z,62.38
2022-12-18T18:37:14.022Z,64.03
2022-12-18T18:39:41.857Z,64.20
2022-12-18T18:42:09.454Z,65.10
2022-12-18T18:44:38.049Z,63.20
2022-12-18T18:47:05.652Z,62.80
2022-12-18T18:49:36.717Z,86.15
2022-12-18T18:52:04.567Z,185.15
2022-12-18T18:54:31.909Z,135.63
2022-12-18T18:59:47.043Z,86.63
2022-12-18T19:02:16.835Z,91.75
2022-12-18T19:04:46.242Z,101.13
2022-12-18T19:07:24.331Z,127.28
2022-12-18T19:09:59.586Z,133.10
2022-12-18T19:12:50.525Z,112.60
2022-12-18T19:15:17.683Z,92.43
2022-12-18T19:17:47.052Z,86.47
2022-12-18T19:20:15.319Z,75.00
2022-12-18T19:22:43.264Z,72.00
2022-12-18T19:25:15.210Z,68.95
2022-12-18T19:27:43.109Z,67.70
2022-12-18T19:30:11.038Z,70.15
2022-12-18T19:32:38.767Z,66.78
2022-12-18T19:35:06.871Z,72.10
2022-12-18T19:37:35.739Z,72.57
2022-12-18T19:40:24.278Z,72.93
2022-12-18T19:42:52.104Z,68.55
2022-12-18T19:45:19.729Z,71.93
2022-12-18T19:47:47.251Z,69.05
2022-12-18T19:50:14.855Z,68.53
2022-12-18T19:52:42.426Z,70.18
2022-12-18T19:55:09.913Z,67.65
2022-12-18T19:57:37.435Z,66.95
2022-12-18T20:00:08.171Z,74.00
2022-12-18T20:02:41.455Z,68.18
2022-12-18T20:05:12.189Z,78.70
2022-12-18T20:07:40.193Z,68.07
2022-12-18T20:10:15.108Z,70.45
2022-12-18T20:12:44.895Z,65.20
2022-12-18T20:15:12.502Z,71.43
2022-12-18T20:17:39.963Z,74.13
2022-12-18T20:20:11.277Z,75.22
2022-12-18T20:22:39.847Z,68.90
2022-12-18T20:25:07.572Z,68.85
2022-12-18T20:27:35.119Z,66.22
2022-12-18T20:30:02.333Z,68.35
2022-12-18T20:32:35.332Z,67.68
2022-12-18T20:35:04.595Z,63.72
2022-12-18T20:37:33.932Z,63.75
2022-12-18T20:40:01.350Z,67.30
2022-12-18T20:42:32.629Z,64.10
2022-12-18T20:44:59.823Z,67.45
2022-12-18T20:47:27.395Z,68.85
2022-12-18T20:49:54.616Z,66.07
2022-12-18T20:52:22.567Z,64.55
2022-12-18T20:54:51.023Z,66.28
2022-12-18T20:57:18.569Z,68.55
2022-12-18T20:59:48.271Z,68.22
2022-12-18T21:02:17.030Z,72.07
2022-12-18T21:04:47.296Z,77.88
2022-12-18T21:07:14.914Z,73.70
2022-12-18T21:09:42.115Z,69.65
2022-12-18T21:12:32.515Z,68.72
2022-12-18T21:15:02.636Z,66.50
2022-12-18T21:17:30.338Z,68.85
2022-12-18T21:20:01.583Z,67.90
2022-12-18T21:22:37.150Z,72.63
2022-12-18T21:25:05.297Z,71.88
2022-12-18T21:27:33.932Z,69.28
2022-12-18T21:30:01.257Z,65.57
2022-12-18T21:32:31.943Z,68.18
2022-12-18T21:35:01.013Z,66.18
2022-12-18T21:37:28.525Z,65.88
2022-12-18T21:39:55.774Z,74.78
2022-12-18T21:42:41.980Z,75.35
2022-12-18T21:45:09.685Z,87.72
2022-12-18T21:47:37.200Z,73.60
2022-12-18T21:50:04.725Z,74.03
2022-12-18T21:52:32.880Z,77.00
2022-12-18T21:55:08.338Z,74.75
2022-12-18T21:57:37.471Z,73.25
2022-12-18T22:00:18.727Z,70.57
2022-12-18T22:03:15.567Z,69.93
2022-12-18T22:05:36.141Z,70.63
2022-12-18T22:08:03.812Z,67.18
2022-12-18T22:10:31.346Z,68.30
2022-12-18T22:12:58.842Z,66.30
2022-12-18T22:15:26.307Z,66.78
2022-12-18T22:17:59.681Z,65.45
2022-12-18T22:20:29.820Z,75.55
2022-12-18T22:22:58.485Z,67.00
2022-12-18T22:25:25.930Z,69.50
2022-12-18T22:28:11.860Z,72.43
2022-12-18T22:30:39.331Z,73.28
2022-12-18T22:33:06.861Z,68.40
2022-12-18T22:35:33.990Z,67.55
2022-12-18T22:38:01.942Z,70.30
2022-12-18T22:40:29.675Z,69.40
2022-12-18T22:42:57.360Z,68.75
2022-12-18T22:45:26.617Z,80.70
2022-12-18T22:47:54.337Z,72.65
2022-12-18T22:50:21.545Z,71.55
2022-12-18T22:52:49.133Z,66.03
2022-12-18T22:55:16.357Z,58.80
2022-12-18T22:57:47.994Z,60.28
2022-12-18T23:00:24.263Z,59.92
2022-12-18T23:02:59.801Z,58.60
2022-12-18T23:05:29.699Z,59.67
2022-12-18T23:07:58.125Z,58.63
2022-12-18T23:10:25.572Z,58.65
2022-12-18T23:12:53.294Z,57.90
2022-12-18T23:15:27.566Z,60.00
2022-12-18T23:17:57.939Z,55.47
2022-12-18T23:20:27.459Z,56.55
2022-12-18T23:22:55.421Z,59.72
2022-12-18T23:25:23.058Z,56.83
2022-12-18T23:27:50.695Z,55.80
2022-12-18T23:30:18.011Z,53.67
2022-12-18T23:32:45.533Z,52.63
2022-12-18T23:35:14.245Z,52.35
2022-12-18T23:38:00.553Z,53.22
2022-12-18T23:40:29.999Z,53.80
2022-12-18T23:43:00.279Z,52.20
2022-12-18T23:45:27.831Z,51.08
2022-12-18T23:47:55.260Z,48.33
2022-12-18T23:50:28.663Z,51.40
2022-12-18T23:53:03.774Z,48.42
2022-12-18T23:55:38.597Z,50.65
2022-12-18T23:58:06.556Z,49.85
